Gove, KS (67736)

04:22 PM CDT die 21o October, anno 2017 (GMT -0500)
Gove East - Dry Gulch | | Change Station
Active Advisory: Freeze Warning

Elev 2800 ft 38.97 °N, 100.44 °W | Updated 3 seconds ago

Plerumque Nubila
Plerumque Nubila
61.3 °F
Feels Like 61.3 °F
N
0.0
Ventus Variabilis Ventus from Magis Auster quam Zephyrus
Gusts 0.0 mph

Hodie
High -- | Low -- °F
--% Chance of Precip.
Yesterday
High -- | Low -- °F
Precip. -- in
Pressio 29.96 in
Visibilitas 10.0 milia passuum
Clouds Aequaliter Nubila 12000 ft
Frigus in quo Ros apparet 29 °F
Umor 29%
Rainfall 0.00 in
Snow Depth Not available.
7:57 AM 6:54 PM
Waxing Crescent, 4% visible
METAR KCBK 212055Z AUTO 33010G22KT 10SM OVC120 17/M01 A2996 RMK AO2
Pressio 29.96 in
Visibilitas 10.0 milia passuum
Clouds Aequaliter Nubila 12000 ft
Frigus in quo Ros apparet 29 °F
Umor 29%
Rainfall 0.00 in
Snow Depth Not available.
7:57 AM 6:54 PM
Waxing Crescent, 4% visible
METAR KCBK 212055Z AUTO 33010G22KT 10SM OVC120 17/M01 A2996 RMK AO2

Get Your Daily Forecast Email!

Thanks for signing up!

Be on the lookout for a verification email in your inbox.

You'll start receiving severe weather alerts in your inbox..

×

10-Day Weather Forecast

Almanac

Astronomy

Oct. 21, 2017 Rise Set
Actual Time
Civil Twilight
Nautical Twilight
Astronomical Twilight
Moon
Length Of Visible Light
Length of Day
Tomorrow will be .
, % of the Moon is Illuminated

Today's Extremes

State Highs State Lows

Community

WunderPhotos

Category 6

Welcome to Category 6. This is the collective home for Weather Underground's featured writeups by Dr. Jeff Masters (right), Bob Henson (left), Chris Burt, and other regular contributors.

Nearby

Air Quality

  Air Quality AQ Index Pollutant
Not available.

Snow Depth

Station Depth Elevation

Earthquake Activity

City Distance Mag. Time & Date
Minimum magnitude displayed is 2.5.

Coastal Water Temperatures

Locus Calor

Stations

Nearby Weather Stations

Station Location Temp Frigus Venti Frigus in quo Ros apparet Umor Ventus Precip. Elev Renovata Type
                   

Watches & Warnings

Freeze Warning
Issued: 2:30 PM CDT Oct. 21, 2017 – National Weather Service

... Freeze warning in effect from midnight MDT /1 am CDT/ tonight
to 8 am MDT /9 am CDT/ Sunday...

The National Weather Service in Goodland has issued a freeze
warning, which is in effect from midnight MDT /1 am CDT/ tonight
to 8 am MDT /9 am CDT/ Sunday. The freeze watch is no longer in
effect.

* Temperatures... 27 to 32 degrees.

* Impacts... crops and sensitive vegetation may be damaged due to
freezing temperatures.

Precautionary/preparedness actions...

A freeze warning is issued when temperatures of 32 degrees or
below are forecast for at least one hour. Those with agricultural
interests in the warned area are advised to harvest or protect
tender vegetation. Also... potted plants normally left outdoors
should be covered or brought inside away from the cold.